sensor_id;sensor_type;location;lat;lon;timestamp;P1;durP1;ratioP1;P2;durP2;ratioP2
70560;SDS011;58109;53.570;10.084;2023-02-28T00:00:30;9.50;;;3.90;;
70560;SDS011;58109;53.570;10.084;2023-02-28T00:02:58;7.90;;;3.57;;
70560;SDS011;58109;53.570;10.084;2023-02-28T00:05:27;7.93;;;3.27;;
70560;SDS011;58109;53.570;10.084;2023-02-28T00:07:53;7.27;;;3.63;;
70560;SDS011;58109;53.570;10.084;2023-02-28T00:10:20;11.50;;;3.90;;
70560;SDS011;58109;53.570;10.084;2023-02-28T00:12:50;11.20;;;3.90;;
70560;SDS011;58109;53.570;10.084;2023-02-28T00:15:16;10.30;;;4.10;;
70560;SDS011;58109;53.570;10.084;2023-02-28T00:17:42;9.40;;;4.13;;
70560;SDS011;58109;53.570;10.084;2023-02-28T00:20:08;14.70;;;3.43;;
70560;SDS011;58109;53.570;10.084;2023-02-28T00:22:37;13.17;;;4.00;;
70560;SDS011;58109;53.570;10.084;2023-02-28T00:25:06;6.30;;;3.17;;
70560;SDS011;58109;53.570;10.084;2023-02-28T00:27:35;8.90;;;4.00;;
70560;SDS011;58109;53.570;10.084;2023-02-28T00:30:01;13.40;;;5.17;;
70560;SDS011;58109;53.570;10.084;2023-02-28T00:32:27;10.13;;;4.23;;
70560;SDS011;58109;53.570;10.084;2023-02-28T00:34:53;11.77;;;3.37;;
70560;SDS011;58109;53.570;10.084;2023-02-28T00:37:18;5.30;;;2.90;;
70560;SDS011;58109;53.570;10.084;2023-02-28T00:39:44;6.43;;;3.70;;
70560;SDS011;58109;53.570;10.084;2023-02-28T00:42:09;5.70;;;2.90;;
70560;SDS011;58109;53.570;10.084;2023-02-28T00:44:37;9.17;;;3.60;;
70560;SDS011;58109;53.570;10.084;2023-02-28T00:47:04;5.73;;;3.40;;
70560;SDS011;58109;53.570;10.084;2023-02-28T00:49:32;6.03;;;3.50;;
70560;SDS011;58109;53.570;10.084;2023-02-28T00:52:00;12.30;;;3.73;;
70560;SDS011;58109;53.570;10.084;2023-02-28T00:54:25;7.63;;;3.50;;
70560;SDS011;58109;53.570;10.084;2023-02-28T00:56:51;8.83;;;3.60;;
70560;SDS011;58109;53.570;10.084;2023-02-28T00:59:16;8.87;;;3.50;;
70560;SDS011;58109;53.570;10.084;2023-02-28T01:01:43;10.60;;;3.50;;
70560;SDS011;58109;53.570;10.084;2023-02-28T01:04:12;14.90;;;3.97;;
70560;SDS011;58109;53.570;10.084;2023-02-28T01:06:38;5.03;;;3.03;;
70560;SDS011;58109;53.570;10.084;2023-02-28T01:09:04;6.47;;;2.57;;
70560;SDS011;58109;53.570;10.084;2023-02-28T01:11:30;8.37;;;3.50;;
70560;SDS011;58109;53.570;10.084;2023-02-28T01:14:00;9.85;;;3.63;;
70560;SDS011;58109;53.570;10.084;2023-02-28T01:16:29;7.57;;;3.30;;
70560;SDS011;58109;53.570;10.084;2023-02-28T01:18:54;8.93;;;3.57;;
70560;SDS011;58109;53.570;10.084;2023-02-28T01:21:23;10.53;;;3.07;;
70560;SDS011;58109;53.570;10.084;2023-02-28T01:23:48;8.33;;;3.27;;
70560;SDS011;58109;53.570;10.084;2023-02-28T01:26:18;8.87;;;3.63;;
70560;SDS011;58109;53.570;10.084;2023-02-28T01:28:45;9.40;;;3.50;;
70560;SDS011;58109;53.570;10.084;2023-02-28T01:31:10;10.23;;;3.33;;
70560;SDS011;58109;53.570;10.084;2023-02-28T01:33:39;7.57;;;3.33;;
70560;SDS011;58109;53.570;10.084;2023-02-28T01:38:58;15.60;;;4.43;;
70560;SDS011;58109;53.570;10.084;2023-02-28T01:41:28;11.40;;;3.40;;
70560;SDS011;58109;53.570;10.084;2023-02-28T01:46:25;8.32;;;3.08;;
70560;SDS011;58109;53.570;10.084;2023-02-28T01:51:49;8.87;;;3.80;;
70560;SDS011;58109;53.570;10.084;2023-02-28T01:54:16;12.13;;;3.10;;
70560;SDS011;58109;53.570;10.084;2023-02-28T01:56:45;14.63;;;3.75;;
70560;SDS011;58109;53.570;10.084;2023-02-28T01:59:29;9.25;;;3.60;;
70560;SDS011;58109;53.570;10.084;2023-02-28T02:02:17;9.73;;;3.15;;
70560;SDS011;58109;53.570;10.084;2023-02-28T02:04:57;7.10;;;3.10;;
70560;SDS011;58109;53.570;10.084;2023-02-28T02:07:43;7.85;;;3.15;;
70560;SDS011;58109;53.570;10.084;2023-02-28T02:10:29;7.73;;;3.03;;
70560;SDS011;58109;53.570;10.084;2023-02-28T02:19:05;11.43;;;3.53;;
70560;SDS011;58109;53.570;10.084;2023-02-28T02:40:27;6.80;;;3.47;;
70560;SDS011;58109;53.570;10.084;2023-02-28T02:43:29;6.68;;;3.15;;
70560;SDS011;58109;53.570;10.084;2023-02-28T02:46:07;5.43;;;3.42;;
70560;SDS011;58109;53.570;10.084;2023-02-28T02:48:37;6.65;;;3.28;;
70560;SDS011;58109;53.570;10.084;2023-02-28T02:51:07;7.13;;;3.78;;
70560;SDS011;58109;53.570;10.084;2023-02-28T02:53:38;5.30;;;3.30;;
70560;SDS011;58109;53.570;10.084;2023-02-28T02:56:14;11.63;;;3.30;;
70560;SDS011;58109;53.570;10.084;2023-02-28T02:58:42;6.93;;;3.53;;
70560;SDS011;58109;53.570;10.084;2023-02-28T03:01:10;7.40;;;3.60;;
70560;SDS011;58109;53.570;10.084;2023-02-28T03:03:36;7.85;;;2.92;;
70560;SDS011;58109;53.570;10.084;2023-02-28T03:06:02;12.40;;;4.20;;
70560;SDS011;58109;53.570;10.084;2023-02-28T03:08:29;8.13;;;3.97;;
70560;SDS011;58109;53.570;10.084;2023-02-28T03:11:00;5.00;;;2.97;;
70560;SDS011;58109;53.570;10.084;2023-02-28T03:23:55;8.98;;;3.88;;
70560;SDS011;58109;53.570;10.084;2023-02-28T03:26:31;11.13;;;4.15;;
70560;SDS011;58109;53.570;10.084;2023-02-28T03:29:03;10.57;;;4.63;;
70560;SDS011;58109;53.570;10.084;2023-02-28T03:31:42;10.43;;;3.83;;
70560;SDS011;58109;53.570;10.084;2023-02-28T03:36:51;9.90;;;4.28;;
70560;SDS011;58109;53.570;10.084;2023-02-28T03:39:24;8.52;;;4.35;;
70560;SDS011;58109;53.570;10.084;2023-02-28T03:47:39;18.08;;;4.97;;
70560;SDS011;58109;53.570;10.084;2023-02-28T03:52:39;11.38;;;4.00;;
70560;SDS011;58109;53.570;10.084;2023-02-28T03:55:13;9.93;;;4.35;;
70560;SDS011;58109;53.570;10.084;2023-02-28T04:00:24;12.57;;;4.45;;
70560;SDS011;58109;53.570;10.084;2023-02-28T04:02:55;7.95;;;3.20;;
70560;SDS011;58109;53.570;10.084;2023-02-28T04:05:21;8.20;;;3.90;;
70560;SDS011;58109;53.570;10.084;2023-02-28T04:07:49;8.07;;;4.35;;
70560;SDS011;58109;53.570;10.084;2023-02-28T04:10:15;10.00;;;4.07;;
70560;SDS011;58109;53.570;10.084;2023-02-28T04:12:40;9.17;;;4.40;;
70560;SDS011;58109;53.570;10.084;2023-02-28T04:15:08;7.83;;;3.77;;
70560;SDS011;58109;53.570;10.084;2023-02-28T04:17:35;7.15;;;4.03;;
70560;SDS011;58109;53.570;10.084;2023-02-28T04:20:00;13.73;;;4.10;;
70560;SDS011;58109;53.570;10.084;2023-02-28T04:22:26;10.90;;;4.60;;
70560;SDS011;58109;53.570;10.084;2023-02-28T04:24:51;8.40;;;4.60;;
70560;SDS011;58109;53.570;10.084;2023-02-28T04:27:19;9.35;;;4.80;;
70560;SDS011;58109;53.570;10.084;2023-02-28T04:29:45;17.65;;;6.88;;
70560;SDS011;58109;53.570;10.084;2023-02-28T04:32:13;21.05;;;6.40;;
70560;SDS011;58109;53.570;10.084;2023-02-28T04:34:39;9.20;;;3.90;;
70560;SDS011;58109;53.570;10.084;2023-02-28T04:37:04;11.93;;;4.70;;
70560;SDS011;58109;53.570;10.084;2023-02-28T04:39:34;9.40;;;4.70;;
70560;SDS011;58109;53.570;10.084;2023-02-28T04:42:00;14.18;;;4.10;;
70560;SDS011;58109;53.570;10.084;2023-02-28T04:44:30;8.02;;;4.40;;
70560;SDS011;58109;53.570;10.084;2023-02-28T04:46:56;8.50;;;4.40;;
70560;SDS011;58109;53.570;10.084;2023-02-28T04:49:24;12.75;;;6.15;;
70560;SDS011;58109;53.570;10.084;2023-02-28T04:51:49;9.20;;;4.53;;
70560;SDS011;58109;53.570;10.084;2023-02-28T04:54:15;8.30;;;4.20;;
70560;SDS011;58109;53.570;10.084;2023-02-28T04:56:43;8.25;;;4.07;;
70560;SDS011;58109;53.570;10.084;2023-02-28T04:59:08;7.23;;;4.53;;
70560;SDS011;58109;53.570;10.084;2023-02-28T05:01:36;12.43;;;4.63;;
70560;SDS011;58109;53.570;10.084;2023-02-28T05:04:02;10.73;;;4.57;;
70560;SDS011;58109;53.570;10.084;2023-02-28T05:06:35;9.00;;;4.43;;
70560;SDS011;58109;53.570;10.084;2023-02-28T05:09:03;11.40;;;4.82;;
70560;SDS011;58109;53.570;10.084;2023-02-28T05:11:29;10.82;;;4.70;;
70560;SDS011;58109;53.570;10.084;2023-02-28T05:14:03;5.95;;;4.10;;
70560;SDS011;58109;53.570;10.084;2023-02-28T05:16:30;8.52;;;5.13;;
70560;SDS011;58109;53.570;10.084;2023-02-28T05:18:56;9.70;;;5.10;;
70560;SDS011;58109;53.570;10.084;2023-02-28T05:23:59;16.70;;;7.40;;
70560;SDS011;58109;53.570;10.084;2023-02-28T05:26:29;8.85;;;5.30;;
70560;SDS011;58109;53.570;10.084;2023-02-28T05:28:55;18.85;;;5.40;;
70560;SDS011;58109;53.570;10.084;2023-02-28T05:31:23;6.80;;;4.80;;
70560;SDS011;58109;53.570;10.084;2023-02-28T05:33:48;12.27;;;4.85;;
70560;SDS011;58109;53.570;10.084;2023-02-28T05:36:13;12.00;;;6.33;;
70560;SDS011;58109;53.570;10.084;2023-02-28T05:38:45;14.17;;;5.73;;
70560;SDS011;58109;53.570;10.084;2023-02-28T05:41:47;15.55;;;5.10;;
70560;SDS011;58109;53.570;10.084;2023-02-28T05:44:13;9.63;;;4.73;;
70560;SDS011;58109;53.570;10.084;2023-02-28T05:46:38;10.00;;;5.57;;
70560;SDS011;58109;53.570;10.084;2023-02-28T05:49:04;10.00;;;4.77;;
70560;SDS011;58109;53.570;10.084;2023-02-28T05:51:31;15.70;;;6.20;;
70560;SDS011;58109;53.570;10.084;2023-02-28T05:53:59;14.98;;;4.95;;
70560;SDS011;58109;53.570;10.084;2023-02-28T05:56:25;9.18;;;4.55;;
70560;SDS011;58109;53.570;10.084;2023-02-28T05:58:53;11.13;;;5.93;;
70560;SDS011;58109;53.570;10.084;2023-02-28T06:01:22;13.70;;;6.03;;
70560;SDS011;58109;53.570;10.084;2023-02-28T06:04:13;12.30;;;4.80;;
70560;SDS011;58109;53.570;10.084;2023-02-28T06:06:46;14.25;;;4.70;;
70560;SDS011;58109;53.570;10.084;2023-02-28T06:09:12;10.05;;;5.18;;
70560;SDS011;58109;53.570;10.084;2023-02-28T06:11:40;15.53;;;5.93;;
70560;SDS011;58109;53.570;10.084;2023-02-28T06:14:06;16.83;;;6.38;;
70560;SDS011;58109;53.570;10.084;2023-02-28T06:16:36;12.55;;;5.55;;
70560;SDS011;58109;53.570;10.084;2023-02-28T06:19:04;15.27;;;6.05;;
70560;SDS011;58109;53.570;10.084;2023-02-28T06:21:32;12.80;;;5.63;;
70560;SDS011;58109;53.570;10.084;2023-02-28T06:24:12;18.48;;;5.78;;
70560;SDS011;58109;53.570;10.084;2023-02-28T06:26:37;12.97;;;5.70;;
70560;SDS011;58109;53.570;10.084;2023-02-28T06:29:05;23.40;;;6.60;;
70560;SDS011;58109;53.570;10.084;2023-02-28T06:31:33;11.15;;;5.88;;
70560;SDS011;58109;53.570;10.084;2023-02-28T06:33:58;11.00;;;5.20;;
70560;SDS011;58109;53.570;10.084;2023-02-28T06:36:24;14.20;;;5.67;;
70560;SDS011;58109;53.570;10.084;2023-02-28T06:38:49;8.27;;;4.90;;
70560;SDS011;58109;53.570;10.084;2023-02-28T06:41:19;12.88;;;5.35;;
70560;SDS011;58109;53.570;10.084;2023-02-28T06:43:46;9.90;;;4.70;;
70560;SDS011;58109;53.570;10.084;2023-02-28T06:46:17;11.57;;;5.63;;
70560;SDS011;58109;53.570;10.084;2023-02-28T06:48:43;11.40;;;5.30;;
70560;SDS011;58109;53.570;10.084;2023-02-28T06:51:14;14.00;;;5.25;;
70560;SDS011;58109;53.570;10.084;2023-02-28T06:53:41;22.85;;;6.50;;
70560;SDS011;58109;53.570;10.084;2023-02-28T06:56:08;18.67;;;7.87;;
70560;SDS011;58109;53.570;10.084;2023-02-28T06:58:35;10.40;;;5.60;;
70560;SDS011;58109;53.570;10.084;2023-02-28T07:01:00;18.93;;;6.37;;
70560;SDS011;58109;53.570;10.084;2023-02-28T07:03:28;10.82;;;5.55;;
70560;SDS011;58109;53.570;10.084;2023-02-28T07:05:55;12.50;;;5.65;;
70560;SDS011;58109;53.570;10.084;2023-02-28T07:08:23;12.80;;;5.68;;
70560;SDS011;58109;53.570;10.084;2023-02-28T07:10:57;8.80;;;5.27;;
70560;SDS011;58109;53.570;10.084;2023-02-28T07:13:23;15.23;;;6.40;;
70560;SDS011;58109;53.570;10.084;2023-02-28T07:15:52;14.67;;;6.30;;
70560;SDS011;58109;53.570;10.084;2023-02-28T07:18:36;14.35;;;5.75;;
70560;SDS011;58109;53.570;10.084;2023-02-28T07:21:03;12.50;;;5.47;;
70560;SDS011;58109;53.570;10.084;2023-02-28T07:23:33;14.85;;;6.40;;
70560;SDS011;58109;53.570;10.084;2023-02-28T07:26:03;12.90;;;5.75;;
70560;SDS011;58109;53.570;10.084;2023-02-28T07:28:31;13.30;;;5.80;;
70560;SDS011;58109;53.570;10.084;2023-02-28T07:31:02;17.23;;;5.28;;
70560;SDS011;58109;53.570;10.084;2023-02-28T07:33:28;12.65;;;5.95;;
70560;SDS011;58109;53.570;10.084;2023-02-28T07:35:59;13.23;;;5.33;;
70560;SDS011;58109;53.570;10.084;2023-02-28T07:38:26;13.73;;;5.13;;
70560;SDS011;58109;53.570;10.084;2023-02-28T07:40:54;12.65;;;5.35;;
70560;SDS011;58109;53.570;10.084;2023-02-28T07:43:19;15.07;;;5.93;;
70560;SDS011;58109;53.570;10.084;2023-02-28T07:45:44;13.70;;;5.37;;
70560;SDS011;58109;53.570;10.084;2023-02-28T07:48:10;11.87;;;5.50;;
70560;SDS011;58109;53.570;10.084;2023-02-28T07:50:35;11.50;;;5.23;;
70560;SDS011;58109;53.570;10.084;2023-02-28T07:53:01;10.87;;;5.57;;
70560;SDS011;58109;53.570;10.084;2023-02-28T07:55:26;10.53;;;5.60;;
70560;SDS011;58109;53.570;10.084;2023-02-28T07:57:54;11.38;;;5.38;;
70560;SDS011;58109;53.570;10.084;2023-02-28T08:00:19;15.00;;;5.70;;
70560;SDS011;58109;53.570;10.084;2023-02-28T08:02:45;15.95;;;5.78;;
70560;SDS011;58109;53.570;10.084;2023-02-28T08:05:13;10.75;;;5.00;;
70560;SDS011;58109;53.570;10.084;2023-02-28T08:07:39;16.50;;;5.67;;
70560;SDS011;58109;53.570;10.084;2023-02-28T08:10:05;9.77;;;6.10;;
70560;SDS011;58109;53.570;10.084;2023-02-28T08:12:31;19.70;;;5.05;;
70560;SDS011;58109;53.570;10.084;2023-02-28T08:14:59;18.23;;;6.13;;
70560;SDS011;58109;53.570;10.084;2023-02-28T08:17:24;12.60;;;5.10;;
70560;SDS011;58109;53.570;10.084;2023-02-28T08:20:08;17.43;;;5.80;;
70560;SDS011;58109;53.570;10.084;2023-02-28T08:22:39;24.25;;;6.50;;
70560;SDS011;58109;53.570;10.084;2023-02-28T08:25:04;24.00;;;5.80;;
70560;SDS011;58109;53.570;10.084;2023-02-28T08:27:32;17.23;;;5.40;;
70560;SDS011;58109;53.570;10.084;2023-02-28T08:29:57;19.97;;;5.43;;
70560;SDS011;58109;53.570;10.084;2023-02-28T08:32:25;16.08;;;5.45;;
70560;SDS011;58109;53.570;10.084;2023-02-28T08:34:50;12.83;;;4.97;;
70560;SDS011;58109;53.570;10.084;2023-02-28T08:37:16;17.40;;;6.70;;
70560;SDS011;58109;53.570;10.084;2023-02-28T08:39:44;18.52;;;5.93;;
70560;SDS011;58109;53.570;10.084;2023-02-28T08:42:09;13.77;;;5.60;;
70560;SDS011;58109;53.570;10.084;2023-02-28T08:44:35;17.23;;;5.50;;
70560;SDS011;58109;53.570;10.084;2023-02-28T08:47:00;12.70;;;5.33;;
70560;SDS011;58109;53.570;10.084;2023-02-28T08:49:28;22.83;;;5.15;;
70560;SDS011;58109;53.570;10.084;2023-02-28T08:51:56;13.53;;;5.07;;
70560;SDS011;58109;53.570;10.084;2023-02-28T08:54:24;18.00;;;5.35;;
70560;SDS011;58109;53.570;10.084;2023-02-28T08:56:55;22.45;;;5.88;;
70560;SDS011;58109;53.570;10.084;2023-02-28T08:59:23;11.93;;;5.63;;
70560;SDS011;58109;53.570;10.084;2023-02-28T09:01:50;9.90;;;4.23;;
70560;SDS011;58109;53.570;10.084;2023-02-28T09:04:18;9.63;;;4.37;;
70560;SDS011;58109;53.570;10.084;2023-02-28T09:06:46;12.07;;;4.80;;
70560;SDS011;58109;53.570;10.084;2023-02-28T09:09:15;6.43;;;4.60;;
70560;SDS011;58109;53.570;10.084;2023-02-28T09:11:40;10.15;;;4.70;;
70560;SDS011;58109;53.570;10.084;2023-02-28T09:14:06;17.30;;;4.10;;
70560;SDS011;58109;53.570;10.084;2023-02-28T09:16:32;11.90;;;4.60;;
70560;SDS011;58109;53.570;10.084;2023-02-28T09:19:00;9.65;;;4.63;;
70560;SDS011;58109;53.570;10.084;2023-02-28T09:21:28;9.80;;;4.55;;
70560;SDS011;58109;53.570;10.084;2023-02-28T09:23:53;10.93;;;4.30;;
70560;SDS011;58109;53.570;10.084;2023-02-28T09:26:23;10.20;;;4.30;;
70560;SDS011;58109;53.570;10.084;2023-02-28T09:28:50;9.93;;;4.80;;
70560;SDS011;58109;53.570;10.084;2023-02-28T09:31:19;11.55;;;3.58;;
70560;SDS011;58109;53.570;10.084;2023-02-28T09:33:49;8.88;;;3.90;;
70560;SDS011;58109;53.570;10.084;2023-02-28T09:36:17;12.23;;;4.63;;
70560;SDS011;58109;53.570;10.084;2023-02-28T09:38:43;6.50;;;4.28;;
70560;SDS011;58109;53.570;10.084;2023-02-28T09:41:16;7.00;;;3.70;;
70560;SDS011;58109;53.570;10.084;2023-02-28T09:43:47;12.02;;;3.28;;
70560;SDS011;58109;53.570;10.084;2023-02-28T09:48:52;16.48;;;3.03;;
70560;SDS011;58109;53.570;10.084;2023-02-28T09:53:55;4.45;;;2.50;;
70560;SDS011;58109;53.570;10.084;2023-02-28T09:59:28;5.50;;;2.03;;
70560;SDS011;58109;53.570;10.084;2023-02-28T10:07:35;5.53;;;2.10;;
70560;SDS011;58109;53.570;10.084;2023-02-28T10:10:20;7.30;;;2.70;;
70560;SDS011;58109;53.570;10.084;2023-02-28T10:12:48;7.03;;;2.00;;
70560;SDS011;58109;53.570;10.084;2023-02-28T10:15:17;2.08;;;1.85;;
70560;SDS011;58109;53.570;10.084;2023-02-28T10:17:45;3.30;;;1.65;;
70560;SDS011;58109;53.570;10.084;2023-02-28T10:20:14;5.00;;;2.30;;
70560;SDS011;58109;53.570;10.084;2023-02-28T10:22:57;6.40;;;2.30;;
70560;SDS011;58109;53.570;10.084;2023-02-28T10:25:26;2.40;;;1.87;;
70560;SDS011;58109;53.570;10.084;2023-02-28T10:27:53;10.20;;;2.33;;
70560;SDS011;58109;53.570;10.084;2023-02-28T10:30:27;4.60;;;2.00;;
70560;SDS011;58109;53.570;10.084;2023-02-28T10:32:53;6.03;;;2.10;;
70560;SDS011;58109;53.570;10.084;2023-02-28T10:35:22;2.53;;;1.63;;
70560;SDS011;58109;53.570;10.084;2023-02-28T10:37:54;4.57;;;1.70;;
70560;SDS011;58109;53.570;10.084;2023-02-28T10:45:37;4.40;;;2.30;;
70560;SDS011;58109;53.570;10.084;2023-02-28T10:48:04;6.80;;;1.70;;
70560;SDS011;58109;53.570;10.084;2023-02-28T10:50:44;5.00;;;1.87;;
70560;SDS011;58109;53.570;10.084;2023-02-28T11:01:17;7.60;;;2.20;;
70560;SDS011;58109;53.570;10.084;2023-02-28T11:03:45;17.23;;;4.90;;
70560;SDS011;58109;53.570;10.084;2023-02-28T11:06:21;13.30;;;4.90;;
70560;SDS011;58109;53.570;10.084;2023-02-28T11:08:48;5.07;;;2.30;;
70560;SDS011;58109;53.570;10.084;2023-02-28T11:11:18;5.13;;;2.27;;
70560;SDS011;58109;53.570;10.084;2023-02-28T11:13:50;10.53;;;2.60;;
70560;SDS011;58109;53.570;10.084;2023-02-28T11:16:20;3.50;;;1.67;;
70560;SDS011;58109;53.570;10.084;2023-02-28T11:21:23;6.67;;;2.27;;
70560;SDS011;58109;53.570;10.084;2023-02-28T11:23:54;3.67;;;2.10;;
70560;SDS011;58109;53.570;10.084;2023-02-28T11:29:20;3.80;;;1.80;;
70560;SDS011;58109;53.570;10.084;2023-02-28T11:34:38;4.23;;;1.67;;
70560;SDS011;58109;53.570;10.084;2023-02-28T11:37:25;8.90;;;2.10;;
70560;SDS011;58109;53.570;10.084;2023-02-28T11:39:55;7.47;;;2.33;;
70560;SDS011;58109;53.570;10.084;2023-02-28T12:12:52;2.20;;;2.00;;
70560;SDS011;58109;53.570;10.084;2023-02-28T12:15:41;3.27;;;2.10;;
70560;SDS011;58109;53.570;10.084;2023-02-28T12:26:46;3.60;;;2.13;;
70560;SDS011;58109;53.570;10.084;2023-02-28T12:29:23;5.90;;;1.80;;
70560;SDS011;58109;53.570;10.084;2023-02-28T12:32:11;2.50;;;1.97;;
70560;SDS011;58109;53.570;10.084;2023-02-28T12:34:47;7.00;;;2.10;;
70560;SDS011;58109;53.570;10.084;2023-02-28T12:37:16;5.97;;;2.20;;
70560;SDS011;58109;53.570;10.084;2023-02-28T12:40:02;13.10;;;2.37;;
70560;SDS011;58109;53.570;10.084;2023-02-28T12:42:33;4.50;;;1.73;;
70560;SDS011;58109;53.570;10.084;2023-02-28T12:45:06;3.50;;;1.60;;
70560;SDS011;58109;53.570;10.084;2023-02-28T12:47:36;6.47;;;2.30;;
70560;SDS011;58109;53.570;10.084;2023-02-28T12:50:07;5.97;;;2.07;;
70560;SDS011;58109;53.570;10.084;2023-02-28T13:04:14;3.23;;;1.87;;
70560;SDS011;58109;53.570;10.084;2023-02-28T13:09:44;2.50;;;1.87;;
70560;SDS011;58109;53.570;10.084;2023-02-28T13:12:17;7.20;;;1.90;;
70560;SDS011;58109;53.570;10.084;2023-02-28T13:14:42;7.20;;;3.00;;
70560;SDS011;58109;53.570;10.084;2023-02-28T13:19:44;8.37;;;2.20;;
70560;SDS011;58109;53.570;10.084;2023-02-28T13:22:20;7.57;;;1.73;;
70560;SDS011;58109;53.570;10.084;2023-02-28T13:25:49;3.50;;;2.27;;
70560;SDS011;58109;53.570;10.084;2023-02-28T13:27:49;8.40;;;2.93;;
70560;SDS011;58109;53.570;10.084;2023-02-28T13:38:50;7.13;;;2.10;;
70560;SDS011;58109;53.570;10.084;2023-02-28T14:07:37;5.13;;;2.10;;
70560;SDS011;58109;53.570;10.084;2023-02-28T14:10:32;4.63;;;2.20;;
70560;SDS011;58109;53.570;10.084;2023-02-28T14:13:03;10.23;;;2.30;;
70560;SDS011;58109;53.570;10.084;2023-02-28T14:15:57;5.13;;;2.23;;
70560;SDS011;58109;53.570;10.084;2023-02-28T14:18:25;9.47;;;3.20;;
70560;SDS011;58109;53.570;10.084;2023-02-28T14:21:13;4.80;;;2.27;;
70560;SDS011;58109;53.570;10.084;2023-02-28T14:27:14;2.57;;;1.43;;
70560;SDS011;58109;53.570;10.084;2023-02-28T14:34:54;5.00;;;2.40;;
70560;SDS011;58109;53.570;10.084;2023-02-28T14:37:43;4.53;;;1.87;;
70560;SDS011;58109;53.570;10.084;2023-02-28T14:40:16;6.10;;;2.57;;
70560;SDS011;58109;53.570;10.084;2023-02-28T14:42:49;9.17;;;2.37;;
70560;SDS011;58109;53.570;10.084;2023-02-28T14:45:20;10.00;;;2.27;;
70560;SDS011;58109;53.570;10.084;2023-02-28T14:47:47;3.20;;;1.63;;
70560;SDS011;58109;53.570;10.084;2023-02-28T14:50:21;3.50;;;2.00;;
70560;SDS011;58109;53.570;10.084;2023-02-28T14:52:51;8.00;;;2.67;;
70560;SDS011;58109;53.570;10.084;2023-02-28T14:55:22;2.23;;;1.70;;
70560;SDS011;58109;53.570;10.084;2023-02-28T14:57:59;4.20;;;2.00;;
70560;SDS011;58109;53.570;10.084;2023-02-28T15:00:32;5.07;;;1.70;;
70560;SDS011;58109;53.570;10.084;2023-02-28T15:03:23;6.93;;;1.50;;
70560;SDS011;58109;53.570;10.084;2023-02-28T15:05:55;2.70;;;2.13;;
70560;SDS011;58109;53.570;10.084;2023-02-28T15:08:42;5.70;;;2.00;;
70560;SDS011;58109;53.570;10.084;2023-02-28T15:11:17;5.63;;;2.13;;
70560;SDS011;58109;53.570;10.084;2023-02-28T15:13:50;3.80;;;1.90;;
70560;SDS011;58109;53.570;10.084;2023-02-28T15:18:54;2.07;;;1.80;;
70560;SDS011;58109;53.570;10.084;2023-02-28T15:23:52;5.00;;;2.30;;
70560;SDS011;58109;53.570;10.084;2023-02-28T15:26:20;6.47;;;2.30;;
70560;SDS011;58109;53.570;10.084;2023-02-28T15:28:51;4.63;;;2.00;;
70560;SDS011;58109;53.570;10.084;2023-02-28T15:31:29;4.83;;;1.93;;
70560;SDS011;58109;53.570;10.084;2023-02-28T15:34:04;6.40;;;2.50;;
70560;SDS011;58109;53.570;10.084;2023-02-28T15:36:32;4.87;;;1.90;;
70560;SDS011;58109;53.570;10.084;2023-02-28T15:39:02;3.23;;;1.60;;
70560;SDS011;58109;53.570;10.084;2023-02-28T15:41:34;4.57;;;2.10;;
70560;SDS011;58109;53.570;10.084;2023-02-28T15:49:50;6.37;;;2.67;;
70560;SDS011;58109;53.570;10.084;2023-02-28T15:52:21;7.90;;;2.40;;
70560;SDS011;58109;53.570;10.084;2023-02-28T15:54:53;11.40;;;2.80;;
70560;SDS011;58109;53.570;10.084;2023-02-28T15:57:21;11.00;;;2.40;;
70560;SDS011;58109;53.570;10.084;2023-02-28T15:59:58;4.77;;;2.00;;
70560;SDS011;58109;53.570;10.084;2023-02-28T16:02:34;4.67;;;2.50;;
70560;SDS011;58109;53.570;10.084;2023-02-28T16:07:28;4.43;;;2.50;;
70560;SDS011;58109;53.570;10.084;2023-02-28T16:09:54;4.33;;;1.70;;
70560;SDS011;58109;53.570;10.084;2023-02-28T16:12:24;4.33;;;2.07;;
70560;SDS011;58109;53.570;10.084;2023-02-28T16:14:54;2.80;;;1.70;;
70560;SDS011;58109;53.570;10.084;2023-02-28T16:17:25;5.47;;;1.90;;
70560;SDS011;58109;53.570;10.084;2023-02-28T16:19:52;6.77;;;2.47;;
70560;SDS011;58109;53.570;10.084;2023-02-28T16:22:21;4.30;;;2.47;;
70560;SDS011;58109;53.570;10.084;2023-02-28T16:24:46;4.87;;;1.80;;
70560;SDS011;58109;53.570;10.084;2023-02-28T16:27:20;4.77;;;1.90;;
70560;SDS011;58109;53.570;10.084;2023-02-28T16:29:52;8.80;;;2.20;;
70560;SDS011;58109;53.570;10.084;2023-02-28T16:32:18;7.13;;;2.00;;
70560;SDS011;58109;53.570;10.084;2023-02-28T16:34:43;4.57;;;2.40;;
70560;SDS011;58109;53.570;10.084;2023-02-28T16:37:13;5.47;;;2.00;;
70560;SDS011;58109;53.570;10.084;2023-02-28T16:39:40;2.90;;;1.83;;
70560;SDS011;58109;53.570;10.084;2023-02-28T16:42:06;7.07;;;3.10;;
70560;SDS011;58109;53.570;10.084;2023-02-28T16:44:33;6.00;;;2.07;;
70560;SDS011;58109;53.570;10.084;2023-02-28T16:47:00;18.13;;;2.90;;
70560;SDS011;58109;53.570;10.084;2023-02-28T16:49:26;12.03;;;2.23;;
70560;SDS011;58109;53.570;10.084;2023-02-28T16:51:52;13.77;;;2.40;;
70560;SDS011;58109;53.570;10.084;2023-02-28T16:54:18;7.37;;;2.80;;
70560;SDS011;58109;53.570;10.084;2023-02-28T16:56:44;11.47;;;2.47;;
70560;SDS011;58109;53.570;10.084;2023-02-28T16:59:13;5.73;;;2.13;;
70560;SDS011;58109;53.570;10.084;2023-02-28T17:01:43;16.93;;;2.70;;
70560;SDS011;58109;53.570;10.084;2023-02-28T17:04:09;8.03;;;2.53;;
70560;SDS011;58109;53.570;10.084;2023-02-28T17:06:39;5.10;;;2.20;;
70560;SDS011;58109;53.570;10.084;2023-02-28T17:09:08;4.00;;;2.20;;
70560;SDS011;58109;53.570;10.084;2023-02-28T17:11:44;10.53;;;2.37;;
70560;SDS011;58109;53.570;10.084;2023-02-28T17:14:11;15.53;;;2.73;;
70560;SDS011;58109;53.570;10.084;2023-02-28T17:16:37;8.93;;;2.90;;
70560;SDS011;58109;53.570;10.084;2023-02-28T17:19:23;7.47;;;2.27;;
70560;SDS011;58109;53.570;10.084;2023-02-28T17:21:56;14.40;;;2.67;;
70560;SDS011;58109;53.570;10.084;2023-02-28T17:24:24;7.47;;;2.40;;
70560;SDS011;58109;53.570;10.084;2023-02-28T17:26:54;9.20;;;2.90;;
70560;SDS011;58109;53.570;10.084;2023-02-28T17:29:20;8.30;;;3.10;;
70560;SDS011;58109;53.570;10.084;2023-02-28T17:31:46;7.67;;;2.53;;
70560;SDS011;58109;53.570;10.084;2023-02-28T17:34:14;5.43;;;2.60;;
70560;SDS011;58109;53.570;10.084;2023-02-28T17:36:47;7.40;;;2.90;;
70560;SDS011;58109;53.570;10.084;2023-02-28T17:39:14;9.13;;;2.73;;
70560;SDS011;58109;53.570;10.084;2023-02-28T17:41:40;12.50;;;3.27;;
70560;SDS011;58109;53.570;10.084;2023-02-28T17:44:08;11.40;;;4.40;;
70560;SDS011;58109;53.570;10.084;2023-02-28T17:46:36;12.10;;;3.03;;
70560;SDS011;58109;53.570;10.084;2023-02-28T17:49:04;9.50;;;3.30;;
70560;SDS011;58109;53.570;10.084;2023-02-28T17:51:32;12.17;;;4.10;;
70560;SDS011;58109;53.570;10.084;2023-02-28T17:54:00;6.57;;;3.17;;
70560;SDS011;58109;53.570;10.084;2023-02-28T17:56:26;10.00;;;3.03;;
70560;SDS011;58109;53.570;10.084;2023-02-28T17:58:52;12.00;;;3.73;;
70560;SDS011;58109;53.570;10.084;2023-02-28T18:01:19;7.57;;;3.27;;
70560;SDS011;58109;53.570;10.084;2023-02-28T18:03:47;9.47;;;3.00;;
70560;SDS011;58109;53.570;10.084;2023-02-28T18:06:14;10.30;;;3.63;;
70560;SDS011;58109;53.570;10.084;2023-02-28T18:08:42;10.27;;;4.80;;
70560;SDS011;58109;53.570;10.084;2023-02-28T18:11:08;7.43;;;3.70;;